Power, MT (59468)

6:41 PM MDT on September 19, 2014 (GMT -0600)
Burgmaier Farm | Change Station
CLOSE
Current Station
Personal Weather Station
Location: Power, MT
Elevation: 3753 ft
Nearby Weather Stations

Elev 3753 ft 47.74 °N, 111.58 °W | Updated 1 second ago

Clear
Clear
67.5 °F
Feels Like 67.5 °F
N
12.4
Wind Variable Wind from SSE
Gusts 18.0 mph

Today
High -- | Low -- °F
--% Chance of Precip.
Yesterday
High -- | Low -- °F
Precip. -- in
7:08 AM 7:29 PM
Waning Crescent, 16% visible
Pressure 29.89 in
Visibility 10.0 miles
Clouds Clear
Dew Point 41 °F
Humidity 38%
Rainfall 0.00 in
Snow Depth 0 in , 0 in , 0 in
UV 1 out of 12
Pollen 6.90 out of 12
Air Quality Not available.
Flu Activity Not available.
METAR KGTF 192353Z 26022G26KT 10SM CLR 22/05 A2995 RMK AO2 PK WND 28029/2326 SLP121 T02170050 10244 20206 53010 $

More Conditions Fewer Conditions

Pressure 29.89 in
Visibility 10.0 miles
Clouds Clear
Dew Point 41 °F
Humidity 38%
Rainfall 0.00 in
Snow Depth 0 in , 0 in , 0 in
UV 1 out of 12
Pollen 6.90 out of 12
Air Quality Not available.
Flu Activity Not available.
METAR KGTF 192353Z 26022G26KT 10SM CLR 22/05 A2995 RMK AO2 PK WND 28029/2326 SLP121 T02170050 10244 20206 53010 $

More Conditions Fewer Conditions

10-Day Weather Forecast

Almanac

Astronomy

Sep. 19, 2014 Rise Set
Actual Time 7:08 AM MDT 7:29 PM MDT
Civil Twilight 6:37 AM MDT 8:00 PM MDT
Nautical Twilight 6:01 AM MDT 8:36 PM MDT
Astronomical Twilight 5:23 AM MDT 9:14 PM MDT
Moon 2:42 AM MDT (9/19) 5:13 PM MDT (9/19)
Length of Visible Light 13h 22m
Length of Day
12h 20m
Tomorrow will be 3m 25s shorter.
Waning Crescent, 16% of the Moon is Illuminated
Today
Waning Crescent
Sep 24
New
Oct 1
First Quarter
Oct 8
Full
Oct 15
Last Quarter

Today's Extremes

State Highs State Lows

Community

WunderPhotos

Upload Photos

1,754,744 photos uploaded!

WunderBlogs® & News

Nearby

Snow Depth

Station Depth Elevation
Badger Pass 0 in 6900 ft
Kraft Creek 0 in 4750 ft
Crystal Lake 0 in 6050 ft
Placer Basin 0 in 8830 ft
Pickfoot Creek 0 in 6650 ft

Earthquake Activity

City Distance Mag. Time & Date
No recent earthquake activity has been reported nearby.
Minimum magnitude displayed is 2.5.

Coastal Water Temperatures

Place Temperature
No Stations Reporting

Nearby Weather Stations